Chennai International Airport
VOMM : now visible

Airfield :











YOU CAN JOIN US ON...

 
LOGIN :

Register | Disclaimer

   EN    FR    IT 

 









Legend :    VFR   Marginal VFR   IFR   Intensive IFR   Very Intensive IFR
Visi :
Ceiling :
>= 8 km
>= 3000ft
5 to 8 km
1000 to 3000 ft
1500m to 5 km
500 to 1000 ft
800 to 1500m
200 to 500 ft
< 800m
< 200 ft
Symbols :   Thunderstorms  Fog  Heavy snow  Heavy precipitations  Wind > 20 kt







- Airport Elevation : 52 ft
- IATA code : MAA


VOMM - Chennai International

CURRENT METAR :
  • 241600Z 18010KT 6000 FEW020 SCT100 31/26 Q1005 NOSIG

EXPIRED METARs :
  • 241530Z 18010KT 6000 FEW020 SCT100 31/26 Q1005 NOSIG
  • 241500Z 19010KT 6000 FEW020 SCT100 31/26 Q1004 NOSIG
  • 241430Z 19010KT 6000 FEW020 SCT100 31/26 Q1004 NOSIG
  • 241400Z 17009KT 6000 FEW020 SCT100 32/26 Q1003 NOSIG
  • 241330Z 16006KT 6000 FEW020 SCT100 32/26 Q1003 NOSIG

TAF TAF VOMM
Valid from the 24 at 12:00 until the 25 at 18:00 UTC


241100Z 2412/2518 15010KT 6000 SCT020 BKN100
TEMPO 2412/2418 3000 TSRA/RA SCT018 FEW025TCU/CB OVC080
BECMG 2418/2419 5000 BR/HZ
BECMG 2421/2422 00000KT
TEMPO 2500/2503 3000 BR
BECMG 2503/2504 6000
VOMF FIR / Asia



MET'MAP, your aeronautical weather chart ! - Copyright ORBIFLY December 2007 - Disclaimer

ORBIFLY MET'MAP TEAM :

Programming & Development : Alexandra Zaïnal
Concept & Development : Baudouin d'Aumeries
Co-Development & Prog : Marc-Olivier Méhu
Technical & hardware support : Manuel Goepfert

Contact : metmap@orbifly.com




SOURCES & CREDITS :

   NOAA       Earth
Advisory